createdAt,value
2018-12-03T00:01:53.761Z,99204.00
2018-12-03T00:04:24.500Z,99197.00
2018-12-03T00:06:54.459Z,99180.00
2018-12-03T00:09:24.358Z,99200.00
2018-12-03T00:11:54.237Z,99204.00
2018-12-03T00:14:24.101Z,99219.00
2018-12-03T00:16:54.136Z,99217.00
2018-12-03T00:19:24.144Z,99234.00
2018-12-03T00:21:54.200Z,99215.00
2018-12-03T00:24:24.150Z,99220.00
2018-12-03T00:26:54.075Z,99218.00
2018-12-03T00:29:24.000Z,99210.00
2018-12-03T00:31:54.016Z,99203.00
2018-12-03T00:34:23.901Z,99192.00
2018-12-03T00:36:53.807Z,99199.00
2018-12-03T00:39:23.715Z,99193.00
2018-12-03T00:41:53.612Z,99202.00
2018-12-03T00:44:23.486Z,99201.00
2018-12-03T00:46:53.451Z,99202.00
2018-12-03T00:49:23.304Z,99198.00
2018-12-03T00:51:53.206Z,99188.00
2018-12-03T00:54:23.203Z,99181.00
2018-12-03T00:56:53.021Z,99187.00
2018-12-03T00:59:22.854Z,99176.00
2018-12-03T01:01:52.753Z,99152.00
2018-12-03T01:04:22.666Z,99177.00
2018-12-03T01:06:52.549Z,99164.00
2018-12-03T01:09:22.443Z,99171.00
2018-12-03T01:11:52.321Z,99163.00
2018-12-03T01:14:22.202Z,99168.00
2018-12-03T01:16:52.117Z,99163.00
2018-12-03T01:19:21.995Z,99159.00
2018-12-03T01:21:51.870Z,99179.00
2018-12-03T01:24:21.756Z,99184.00
2018-12-03T01:26:51.671Z,99189.00
2018-12-03T01:29:21.917Z,99184.00
2018-12-03T01:31:53.009Z,99181.00
2018-12-03T01:34:23.076Z,99179.00
2018-12-03T01:36:52.979Z,99172.00
2018-12-03T01:39:22.821Z,99188.00
2018-12-03T01:41:52.776Z,99189.00
2018-12-03T01:44:22.601Z,99195.00
2018-12-03T01:46:52.504Z,99204.00
2018-12-03T01:49:22.374Z,99214.00
2018-12-03T01:51:52.256Z,99223.00
2018-12-03T01:54:22.102Z,99220.00
2018-12-03T01:56:51.987Z,99234.00
2018-12-03T01:59:21.861Z,99233.00
2018-12-03T02:01:51.824Z,99237.00
2018-12-03T02:04:21.727Z,99218.00
2018-12-03T02:06:51.580Z,99229.00
2018-12-03T02:09:21.444Z,99230.00
2018-12-03T02:11:51.283Z,99180.00
2018-12-03T02:14:21.168Z,99237.00
2018-12-03T02:16:50.974Z,99237.00
2018-12-03T02:19:20.849Z,99233.00
2018-12-03T02:21:50.699Z,99218.00
2018-12-03T02:24:20.577Z,99228.00
2018-12-03T02:26:52.323Z,99222.00
2018-12-03T02:29:22.257Z,99215.00
2018-12-03T02:31:52.139Z,99211.00
2018-12-03T02:34:22.023Z,99228.00
2018-12-03T02:36:51.864Z,99212.00
2018-12-03T02:39:21.747Z,99213.00
2018-12-03T02:41:51.655Z,99211.00
2018-12-03T02:44:21.903Z,99213.00
2018-12-03T02:46:51.768Z,99207.00
2018-12-03T02:49:21.727Z,99212.00
2018-12-03T02:51:51.642Z,99212.00
2018-12-03T02:54:21.517Z,99199.00
2018-12-03T02:56:51.389Z,99196.00
2018-12-03T02:59:21.253Z,99204.00
2018-12-03T03:01:51.137Z,99188.00
2018-12-03T03:04:21.413Z,99191.00
2018-12-03T03:06:51.268Z,99198.00
2018-12-03T03:09:21.459Z,99192.00
2018-12-03T03:11:51.352Z,99207.00
2018-12-03T03:14:21.255Z,99199.00
2018-12-03T03:16:51.084Z,99202.00
2018-12-03T03:19:20.914Z,99213.00
2018-12-03T03:21:50.782Z,99194.00
2018-12-03T03:24:20.680Z,99185.00
2018-12-03T03:26:50.649Z,99186.00
2018-12-03T03:29:20.543Z,99187.00
2018-12-03T03:31:50.463Z,99196.00
2018-12-03T03:34:20.361Z,99199.00
2018-12-03T03:36:50.224Z,99205.00
2018-12-03T03:39:20.106Z,99197.00
2018-12-03T03:41:49.994Z,99193.00
2018-12-03T03:44:19.832Z,99190.00
2018-12-03T03:46:49.678Z,99193.00
2018-12-03T03:49:19.549Z,99197.00
2018-12-03T03:51:49.429Z,99196.00
2018-12-03T03:54:25.115Z,99201.00
2018-12-03T03:56:50.994Z,99201.00
2018-12-03T03:59:20.893Z,99195.00
2018-12-03T04:01:50.737Z,99193.00
2018-12-03T04:04:20.583Z,99190.00
2018-12-03T04:06:50.435Z,99184.00
2018-12-03T04:09:20.333Z,99182.00
2018-12-03T04:11:50.174Z,99191.00
2018-12-03T04:14:20.114Z,99182.00
2018-12-03T04:16:49.987Z,99195.00
2018-12-03T04:19:19.842Z,99190.00
2018-12-03T04:21:49.774Z,99175.00
2018-12-03T04:24:20.437Z,99168.00
2018-12-03T04:26:50.299Z,99167.00
2018-12-03T04:29:20.157Z,99172.00
2018-12-03T04:31:50.172Z,99170.00
2018-12-03T04:34:20.070Z,99194.00
2018-12-03T04:36:49.994Z,99222.00
2018-12-03T04:39:19.840Z,99230.00
2018-12-03T04:41:49.744Z,99238.00
2018-12-03T04:44:19.773Z,99227.00
2018-12-03T04:46:49.625Z,99239.00
2018-12-03T04:49:19.535Z,99243.00
2018-12-03T04:51:49.483Z,99249.00
2018-12-03T04:54:19.307Z,99248.00
2018-12-03T04:56:49.598Z,99243.00
2018-12-03T04:59:19.498Z,99237.00
2018-12-03T05:01:49.374Z,99244.00
2018-12-03T05:04:19.201Z,99245.00
2018-12-03T05:06:49.072Z,99230.00
2018-12-03T05:09:18.988Z,99239.00
2018-12-03T05:11:48.788Z,99251.00
2018-12-03T05:14:19.536Z,99247.00
2018-12-03T05:16:49.378Z,99255.00
2018-12-03T05:19:19.275Z,99245.00
2018-12-03T05:21:49.430Z,99233.00
2018-12-03T05:24:19.301Z,99224.00
2018-12-03T05:26:49.178Z,99205.00
2018-12-03T05:29:19.061Z,99187.00
2018-12-03T05:31:48.920Z,99200.00
2018-12-03T05:34:18.834Z,99218.00
2018-12-03T05:36:48.691Z,99213.00
2018-12-03T05:39:18.595Z,99225.00
2018-12-03T05:41:48.527Z,99217.00
2018-12-03T05:44:18.380Z,99246.00
2018-12-03T05:46:48.277Z,99220.00
2018-12-03T05:49:18.106Z,99206.00
2018-12-03T05:51:47.963Z,99204.00
2018-12-03T05:54:18.680Z,99211.00
2018-12-03T05:56:48.498Z,99218.00
2018-12-03T05:59:18.360Z,99207.00
2018-12-03T06:01:48.285Z,99202.00
2018-12-03T06:04:18.150Z,99219.00
2018-12-03T06:06:48.023Z,99224.00
2018-12-03T06:09:17.877Z,99219.00
2018-12-03T06:11:47.722Z,99232.00
2018-12-03T06:14:17.629Z,99235.00
2018-12-03T06:16:47.509Z,99230.00
2018-12-03T06:19:17.375Z,99243.00
2018-12-03T06:21:49.133Z,99245.00
2018-12-03T06:24:19.014Z,99245.00
2018-12-03T06:26:48.878Z,99246.00
2018-12-03T06:29:18.693Z,99242.00
2018-12-03T06:31:48.585Z,99244.00
2018-12-03T06:34:19.045Z,99238.00
2018-12-03T06:36:49.028Z,99233.00
2018-12-03T06:39:18.855Z,99239.00
2018-12-03T06:41:48.685Z,99244.00
2018-12-03T06:44:18.539Z,99244.00
2018-12-03T06:47:09.940Z,99239.00
2018-12-03T06:49:40.386Z,99242.00
2018-12-03T06:52:10.302Z,99225.00
2018-12-03T06:54:40.195Z,99230.00
2018-12-03T06:57:10.175Z,99225.00
2018-12-03T06:59:40.025Z,99217.00
2018-12-03T07:02:09.942Z,99237.00
2018-12-03T07:04:39.822Z,99239.00
2018-12-03T07:07:09.689Z,99244.00
2018-12-03T07:09:39.596Z,99249.00
2018-12-03T07:12:09.504Z,99239.00
2018-12-03T07:14:39.351Z,99234.00
2018-12-03T07:17:09.221Z,99244.00
2018-12-03T07:19:39.051Z,99248.00
2018-12-03T07:22:08.983Z,99240.00
2018-12-03T07:24:38.849Z,99252.00
2018-12-03T07:27:08.709Z,99254.00
2018-12-03T07:29:38.606Z,99251.00
2018-12-03T07:32:08.480Z,99250.00
2018-12-03T07:34:38.331Z,99247.00
2018-12-03T07:37:08.743Z,99248.00
2018-12-03T07:39:38.570Z,99259.00
2018-12-03T07:42:08.494Z,99243.00
2018-12-03T07:44:38.347Z,99252.00
2018-12-03T07:47:08.236Z,99263.00
2018-12-03T07:49:38.063Z,99259.00
2018-12-03T07:52:08.443Z,99249.00
2018-12-03T07:54:38.293Z,99255.00
2018-12-03T07:57:08.234Z,99245.00
2018-12-03T07:59:37.980Z,99242.00
2018-12-03T08:02:07.935Z,99256.00
2018-12-03T08:04:37.813Z,99253.00
2018-12-03T08:07:07.748Z,99267.00
2018-12-03T08:09:37.599Z,99266.00
2018-12-03T08:12:07.481Z,99248.00
2018-12-03T08:14:37.297Z,99258.00
2018-12-03T08:17:07.198Z,99246.00
2018-12-03T08:19:37.054Z,99266.00
2018-12-03T08:22:09.276Z,99271.00
2018-12-03T08:24:39.187Z,99272.00
2018-12-03T08:27:09.090Z,99273.00
2018-12-03T08:29:38.982Z,99276.00
2018-12-03T08:32:08.918Z,99282.00
2018-12-03T08:34:38.796Z,99273.00
2018-12-03T08:37:08.647Z,99262.00
2018-12-03T08:39:38.882Z,99272.00
2018-12-03T08:42:08.893Z,99272.00
2018-12-03T08:44:38.715Z,99281.00
2018-12-03T08:47:13.539Z,99275.00
2018-12-03T08:49:44.314Z,99269.00
2018-12-03T08:52:14.798Z,99283.00
2018-12-03T08:54:44.640Z,99259.00
2018-12-03T08:57:14.581Z,99268.00
2018-12-03T08:59:46.376Z,99266.00
2018-12-03T09:02:16.249Z,99257.00
2018-12-03T09:04:52.360Z,99272.00
2018-12-03T09:07:22.213Z,99263.00
2018-12-03T09:09:52.057Z,99274.00
2018-12-03T09:12:21.928Z,99284.00
2018-12-03T09:14:51.828Z,99286.00
2018-12-03T09:17:21.770Z,99282.00
2018-12-03T09:19:51.959Z,99280.00
2018-12-03T09:22:21.844Z,99286.00
2018-12-03T09:24:51.738Z,99283.00
2018-12-03T09:27:22.301Z,99276.00
2018-12-03T09:29:56.018Z,99273.00
2018-12-03T09:32:31.508Z,99278.00
2018-12-03T09:35:04.611Z,99278.00
2018-12-03T09:37:34.495Z,99285.00
2018-12-03T09:40:07.511Z,99279.00
2018-12-03T09:42:37.443Z,99278.00
2018-12-03T09:45:15.621Z,99270.00
2018-12-03T09:47:46.062Z,99264.00
2018-12-03T09:50:22.136Z,99269.00
2018-12-03T09:52:52.115Z,99277.00
2018-12-03T09:55:29.796Z,99289.00
2018-12-03T09:58:17.721Z,99269.00
2018-12-03T10:00:47.614Z,99269.00
2018-12-03T10:03:33.159Z,99252.00
2018-12-03T10:06:11.626Z,99266.00
2018-12-03T10:08:41.561Z,99255.00
2018-12-03T10:11:11.367Z,99257.00
2018-12-03T10:13:41.311Z,99257.00
2018-12-03T10:16:11.278Z,99260.00
2018-12-03T10:18:46.831Z,99261.00
2018-12-03T10:21:16.834Z,99255.00
2018-12-03T10:23:46.820Z,99253.00
2018-12-03T10:26:16.655Z,99250.00
2018-12-03T10:28:46.589Z,99248.00
2018-12-03T10:31:16.455Z,99256.00
2018-12-03T10:33:46.354Z,99243.00
2018-12-03T10:36:16.288Z,99238.00
2018-12-03T10:38:48.049Z,99242.00
2018-12-03T10:41:25.887Z,99228.00
2018-12-03T10:43:59.048Z,99223.00
2018-12-03T10:46:28.990Z,99215.00
2018-12-03T10:49:08.921Z,99219.00
2018-12-03T10:51:39.548Z,99224.00
2018-12-03T10:54:09.413Z,99212.00
2018-12-03T10:56:39.228Z,99200.00
2018-12-03T10:59:09.417Z,99215.00
2018-12-03T11:02:13.777Z,99215.00
2018-12-03T11:05:01.454Z,99224.00
2018-12-03T11:07:31.315Z,99213.00
2018-12-03T11:10:01.192Z,99219.00
2018-12-03T11:12:31.111Z,99219.00
2018-12-03T11:15:07.390Z,99219.00
2018-12-03T11:17:37.252Z,99224.00
2018-12-03T11:20:08.174Z,99231.00
2018-12-03T11:22:38.158Z,99219.00
2018-12-03T11:25:12.756Z,99222.00
2018-12-03T11:27:44.936Z,99219.00
2018-12-03T11:30:15.030Z,99214.00
2018-12-03T11:32:44.987Z,99217.00
2018-12-03T11:35:21.455Z,99208.00
2018-12-03T11:37:52.099Z,99162.00
2018-12-03T11:40:34.014Z,99210.00
2018-12-03T11:43:03.893Z,99193.00
2018-12-03T11:45:33.813Z,99181.00
2018-12-03T11:48:03.718Z,99186.00
2018-12-03T11:50:33.613Z,99194.00
2018-12-03T11:53:03.505Z,99175.00
2018-12-03T11:55:33.417Z,99202.00
2018-12-03T11:58:03.316Z,99203.00
2018-12-03T12:00:33.205Z,99203.00
2018-12-03T12:03:03.081Z,99162.00
2018-12-03T12:05:32.973Z,99197.00
2018-12-03T12:08:02.956Z,99201.00
2018-12-03T12:10:32.941Z,99216.00
2018-12-03T12:13:02.867Z,99213.00
2018-12-03T12:15:32.764Z,99202.00
2018-12-03T12:18:02.665Z,99197.00
2018-12-03T12:20:32.597Z,99193.00
2018-12-03T12:23:02.638Z,99184.00
2018-12-03T12:25:32.571Z,99184.00
2018-12-03T12:28:02.503Z,99196.00
2018-12-03T12:30:32.532Z,99191.00
2018-12-03T12:33:02.431Z,99180.00
2018-12-03T12:35:32.323Z,99188.00
2018-12-03T12:38:02.142Z,99176.00
2018-12-03T12:40:32.007Z,99173.00
2018-12-03T12:43:01.941Z,99174.00
2018-12-03T12:45:40.816Z,99178.00
2018-12-03T12:48:10.763Z,99174.00
2018-12-03T12:50:40.717Z,99163.00
2018-12-03T12:53:10.593Z,99166.00
2018-12-03T12:55:40.476Z,99161.00
2018-12-03T12:58:10.392Z,99159.00
2018-12-03T13:00:40.512Z,99174.00
2018-12-03T13:03:10.441Z,99179.00
2018-12-03T13:05:40.371Z,99157.00
2018-12-03T13:08:10.250Z,99179.00
2018-12-03T13:10:40.199Z,99161.00
2018-12-03T13:13:10.190Z,99175.00
2018-12-03T13:15:40.263Z,99180.00
2018-12-03T13:18:10.182Z,99160.00
2018-12-03T13:20:40.075Z,99168.00
2018-12-03T13:23:09.922Z,99171.00
2018-12-03T13:25:39.812Z,99173.00
2018-12-03T13:28:09.781Z,99161.00
2018-12-03T13:30:39.730Z,99157.00
2018-12-03T13:33:09.603Z,99147.00
2018-12-03T13:35:40.459Z,99135.00
2018-12-03T13:38:10.385Z,99135.00
2018-12-03T13:40:40.428Z,99129.00
2018-12-03T13:43:10.634Z,99131.00
2018-12-03T13:45:40.647Z,99156.00
2018-12-03T13:48:10.837Z,99170.00
2018-12-03T13:50:40.797Z,99185.00
2018-12-03T13:53:10.696Z,99168.00
2018-12-03T13:55:40.663Z,99180.00
2018-12-03T13:58:10.554Z,99182.00
2018-12-03T14:00:41.464Z,99179.00
2018-12-03T14:03:32.989Z,99171.00
2018-12-03T14:06:29.075Z,99176.00
2018-12-03T14:09:40.629Z,99170.00
2018-12-03T14:12:32.483Z,99171.00
2018-12-03T14:15:45.526Z,99162.00
2018-12-03T14:18:33.864Z,99178.00
2018-12-03T14:21:26.881Z,99185.00
2018-12-03T14:23:59.305Z,99172.00
2018-12-03T14:26:29.296Z,99165.00
2018-12-03T14:28:59.297Z,99155.00
2018-12-03T14:31:29.267Z,99159.00
2018-12-03T14:33:59.312Z,99149.00
2018-12-03T14:36:29.276Z,99152.00
2018-12-03T14:38:59.309Z,99131.00
2018-12-03T14:41:29.233Z,99135.00
2018-12-03T14:43:59.174Z,99123.00
2018-12-03T14:46:29.187Z,99141.00
2018-12-03T14:48:59.079Z,99130.00
2018-12-03T14:51:29.559Z,99134.00
2018-12-03T14:53:59.595Z,99127.00
2018-12-03T14:56:29.572Z,99119.00
2018-12-03T14:58:59.458Z,99121.00
2018-12-03T15:01:29.443Z,99128.00
2018-12-03T15:04:01.288Z,99127.00
2018-12-03T15:06:31.284Z,99126.00
2018-12-03T15:09:02.138Z,99117.00
2018-12-03T15:11:32.081Z,99117.00
2018-12-03T15:14:02.022Z,99120.00
2018-12-03T15:16:31.954Z,99125.00
2018-12-03T15:19:01.910Z,99113.00
2018-12-03T15:21:31.981Z,99128.00
2018-12-03T15:24:01.942Z,99126.00
2018-12-03T15:26:31.945Z,99133.00
2018-12-03T15:29:02.043Z,99135.00
2018-12-03T15:31:32.104Z,99132.00
2018-12-03T15:34:02.047Z,99127.00
2018-12-03T15:36:32.036Z,99136.00
2018-12-03T15:39:02.205Z,99138.00
2018-12-03T15:41:32.110Z,99132.00
2018-12-03T15:44:02.059Z,99132.00
2018-12-03T15:46:32.027Z,99138.00
2018-12-03T15:49:02.007Z,99122.00
2018-12-03T15:51:32.003Z,99126.00
2018-12-03T15:54:01.922Z,99140.00
2018-12-03T15:56:31.910Z,99136.00
2018-12-03T15:59:01.856Z,99126.00
2018-12-03T16:01:31.787Z,99127.00
2018-12-03T16:04:01.648Z,99127.00
2018-12-03T16:06:31.655Z,99130.00
2018-12-03T16:09:01.608Z,99124.00
2018-12-03T16:11:31.633Z,99132.00
2018-12-03T16:14:01.632Z,99128.00
2018-12-03T16:16:31.663Z,99124.00
2018-12-03T16:19:02.394Z,99120.00
2018-12-03T16:21:32.595Z,99124.00
2018-12-03T16:24:02.588Z,99124.00
2018-12-03T16:26:32.575Z,99117.00
2018-12-03T16:29:02.514Z,99131.00
2018-12-03T16:31:32.504Z,99113.00
2018-12-03T16:34:02.426Z,99105.00
2018-12-03T16:36:32.372Z,99114.00
2018-12-03T16:39:03.701Z,99112.00
2018-12-03T16:41:33.724Z,99107.00
2018-12-03T16:44:03.792Z,99101.00
2018-12-03T16:46:33.838Z,99074.00
2018-12-03T16:49:03.809Z,99050.00
2018-12-03T16:51:33.770Z,99057.00
2018-12-03T16:54:03.741Z,99069.00
2018-12-03T16:56:33.954Z,99068.00
2018-12-03T16:59:03.893Z,99051.00
2018-12-03T17:01:34.022Z,99070.00
2018-12-03T17:04:04.010Z,99073.00
2018-12-03T17:06:34.001Z,99074.00
2018-12-03T17:09:05.062Z,99075.00
2018-12-03T17:11:35.089Z,99082.00
2018-12-03T17:14:05.070Z,99082.00
2018-12-03T17:16:35.025Z,99076.00
2018-12-03T17:19:05.039Z,99076.00
2018-12-03T17:22:34.598Z,99072.00
2018-12-03T17:25:07.545Z,99065.00
2018-12-03T17:27:37.529Z,99069.00
2018-12-03T17:30:08.667Z,99066.00
2018-12-03T17:32:38.603Z,99064.00
2018-12-03T17:35:08.666Z,99066.00
2018-12-03T17:37:38.836Z,99063.00
2018-12-03T17:40:11.636Z,99059.00
2018-12-03T17:42:41.786Z,99053.00
2018-12-03T17:45:13.550Z,99077.00
2018-12-03T17:47:43.892Z,99083.00
2018-12-03T17:50:13.924Z,99084.00
2018-12-03T17:52:44.035Z,99079.00
2018-12-03T17:55:14.141Z,99085.00
2018-12-03T17:57:44.184Z,99077.00
2018-12-03T18:00:16.537Z,99076.00
2018-12-03T18:02:46.714Z,99064.00
2018-12-03T18:05:16.784Z,99062.00
2018-12-03T18:07:46.797Z,99051.00
2018-12-03T18:10:16.810Z,99038.00
2018-12-03T18:12:46.866Z,99038.00
2018-12-03T18:15:17.068Z,99047.00
2018-12-03T18:17:47.248Z,99056.00
2018-12-03T18:20:17.350Z,99067.00
2018-12-03T18:22:47.413Z,99066.00
2018-12-03T18:25:17.396Z,99072.00
2018-12-03T18:27:47.460Z,99077.00
2018-12-03T18:30:17.501Z,99074.00
2018-12-03T18:32:47.533Z,99066.00
2018-12-03T18:35:17.503Z,99064.00
2018-12-03T18:37:47.598Z,99071.00
2018-12-03T18:40:17.711Z,99068.00
2018-12-03T18:42:47.798Z,99079.00
2018-12-03T18:45:18.260Z,99078.00
2018-12-03T18:47:48.289Z,99080.00
2018-12-03T18:50:23.314Z,99083.00
2018-12-03T18:52:53.354Z,99088.00
2018-12-03T18:55:23.473Z,99103.00
2018-12-03T18:58:01.325Z,99102.00
2018-12-03T19:00:31.511Z,99111.00
2018-12-03T19:03:01.751Z,99110.00
2018-12-03T19:05:31.952Z,99114.00
2018-12-03T19:08:02.057Z,99122.00
2018-12-03T19:10:32.229Z,99126.00
2018-12-03T19:13:02.388Z,99119.00
2018-12-03T19:15:32.570Z,99122.00
2018-12-03T19:18:02.639Z,99129.00
2018-12-03T19:20:32.813Z,99135.00
2018-12-03T19:23:02.854Z,99115.00
2018-12-03T19:25:32.989Z,99125.00
2018-12-03T19:28:03.012Z,99134.00
2018-12-03T19:30:33.075Z,99126.00
2018-12-03T19:33:03.129Z,99129.00
2018-12-03T19:35:33.266Z,99131.00
2018-12-03T19:38:03.423Z,99133.00
2018-12-03T19:40:33.689Z,99138.00
2018-12-03T19:43:03.808Z,99142.00
2018-12-03T19:45:33.926Z,99138.00
2018-12-03T19:48:04.285Z,99158.00
2018-12-03T19:50:34.242Z,99165.00
2018-12-03T19:53:04.383Z,99168.00
2018-12-03T19:55:36.919Z,99166.00
2018-12-03T19:58:21.087Z,99173.00
2018-12-03T20:00:51.622Z,99184.00
2018-12-03T20:03:21.619Z,99182.00
2018-12-03T20:05:51.743Z,99184.00
2018-12-03T20:08:21.885Z,99195.00
2018-12-03T20:10:51.946Z,99207.00
2018-12-03T20:13:22.092Z,99197.00
2018-12-03T20:15:52.448Z,99205.00
2018-12-03T20:18:22.526Z,99218.00
2018-12-03T20:21:00.773Z,99220.00
2018-12-03T20:23:38.655Z,99233.00
2018-12-03T20:26:19.844Z,99230.00
2018-12-03T20:29:20.825Z,99234.00
2018-12-03T20:32:16.392Z,99241.00
2018-12-03T20:34:59.828Z,99256.00
2018-12-03T20:38:33.107Z,99250.00
2018-12-03T20:41:31.141Z,99253.00
2018-12-03T20:44:16.760Z,99259.00
2018-12-03T20:47:25.131Z,99272.00
2018-12-03T20:50:33.523Z,99276.00
2018-12-03T20:53:04.065Z,99280.00
2018-12-03T20:55:41.665Z,99280.00
2018-12-03T20:58:11.787Z,99292.00
2018-12-03T21:00:42.833Z,99292.00
2018-12-03T21:03:14.801Z,99290.00
2018-12-03T21:05:45.275Z,99305.00
2018-12-03T21:08:15.754Z,99308.00
2018-12-03T21:10:45.776Z,99305.00
2018-12-03T21:13:16.341Z,99309.00
2018-12-03T21:15:46.408Z,99307.00
2018-12-03T21:18:16.506Z,99326.00
2018-12-03T21:20:51.463Z,99315.00
2018-12-03T21:23:22.019Z,99323.00
2018-12-03T21:25:54.845Z,99315.00
2018-12-03T21:28:25.045Z,99317.00
2018-12-03T21:30:58.052Z,99313.00
2018-12-03T21:33:28.032Z,99322.00
2018-12-03T21:35:58.062Z,99327.00
2018-12-03T21:38:28.119Z,99327.00
2018-12-03T21:40:58.279Z,99335.00
2018-12-03T21:43:28.422Z,99348.00
2018-12-03T21:45:58.380Z,99341.00
2018-12-03T21:48:28.820Z,99350.00
2018-12-03T21:50:58.946Z,99353.00
2018-12-03T21:53:29.540Z,99362.00
2018-12-03T21:56:00.027Z,99378.00
2018-12-03T21:58:31.447Z,99382.00
2018-12-03T22:01:01.488Z,99388.00
2018-12-03T22:03:31.714Z,99395.00
2018-12-03T22:06:01.679Z,99397.00
2018-12-03T22:08:31.728Z,99408.00
2018-12-03T22:11:01.912Z,99420.00
2018-12-03T22:13:31.988Z,99416.00
2018-12-03T22:16:01.943Z,99415.00
2018-12-03T22:18:31.942Z,99417.00
2018-12-03T22:21:02.135Z,99419.00
2018-12-03T22:23:32.264Z,99425.00
2018-12-03T22:26:02.204Z,99426.00
2018-12-03T22:28:32.231Z,99433.00
2018-12-03T22:31:02.143Z,99437.00
2018-12-03T22:33:32.116Z,99422.00
2018-12-03T22:36:02.167Z,99434.00
2018-12-03T22:38:32.322Z,99442.00
2018-12-03T22:41:02.242Z,99432.00
2018-12-03T22:43:32.331Z,99444.00
2018-12-03T22:46:02.312Z,99449.00
2018-12-03T22:48:33.391Z,99458.00
2018-12-03T22:51:03.353Z,99467.00
2018-12-03T22:53:36.922Z,99250.00
2018-12-03T22:56:07.030Z,99469.00
2018-12-03T22:59:24.240Z,99470.00
2018-12-03T23:01:52.502Z,99475.00
2018-12-03T23:04:20.750Z,99476.00
2018-12-03T23:06:48.902Z,99491.00
2018-12-03T23:09:16.976Z,99490.00
2018-12-03T23:11:45.135Z,99492.00
2018-12-03T23:14:13.268Z,99501.00
2018-12-03T23:16:41.469Z,99494.00
2018-12-03T23:19:09.872Z,99496.00
2018-12-03T23:21:38.355Z,99499.00
2018-12-03T23:24:06.478Z,99509.00
2018-12-03T23:26:34.867Z,99512.00
2018-12-03T23:29:04.150Z,99506.00
2018-12-03T23:31:32.302Z,99515.00
2018-12-03T23:34:00.444Z,99506.00
2018-12-03T23:36:28.530Z,99508.00
2018-12-03T23:38:56.968Z,99517.00
2018-12-03T23:41:25.163Z,99518.00
2018-12-03T23:43:53.255Z,99530.00
2018-12-03T23:46:21.361Z,99525.00
2018-12-03T23:48:49.478Z,99516.00
2018-12-03T23:51:17.549Z,99525.00
2018-12-03T23:53:45.627Z,99515.00
2018-12-03T23:56:13.692Z,99526.00
2018-12-03T23:58:41.774Z,99516.00
